Time;durP1;ratioP1;P1;durP2;ratioP2;P2;SDS_P1;SDS_P2;PMS_P1;PMS_P2;Temp;Humidity;BMP_temperature;BMP_pressure;BME280_temperature;BME280_humidity;BME280_pressure;Samples;Min_cycle;Max_cycle;Signal;HPM_P1;HPM_P2
2021/10/26 00:00:43;;;;;;;24.90;17.90;;;;;;;4.66;100.00;101065.53;5015323;28;20047;-82
2021/10/26 00:03:12;;;;;;;24.42;17.70;;;;;;;4.89;100.00;101072.72;4993382;28;20067;-84
2021/10/26 00:05:39;;;;;;;27.02;17.33;;;;;;;5.01;100.00;101077.59;5015732;28;20506;-80
2021/10/26 00:08:07;;;;;;;26.33;18.17;;;;;;;4.92;100.00;101074.41;5002582;28;20041;-80
2021/10/26 00:10:34;;;;;;;28.55;19.85;;;;;;;4.76;100.00;101073.97;5000843;28;20047;-82
2021/10/26 00:13:02;;;;;;;28.58;19.38;;;;;;;4.60;100.00;101073.53;5032714;28;20488;-83
2021/10/26 00:15:29;;;;;;;26.23;18.85;;;;;;;4.58;100.00;101075.31;4998618;28;20079;-81
2021/10/26 00:17:57;;;;;;;24.13;16.90;;;;;;;5.06;100.00;101075.72;5015920;28;20055;-80
2021/10/26 00:20:25;;;;;;;25.98;16.05;;;;;;;5.18;100.00;101061.44;5017357;28;20048;-82
2021/10/26 00:22:52;;;;;;;27.70;18.08;;;;;;;5.14;100.00;101072.88;5031253;28;20367;-79
2021/10/26 00:25:19;;;;;;;29.52;20.13;;;;;;;4.90;100.00;101076.19;5011408;28;20340;-79
2021/10/26 00:27:46;;;;;;;34.28;20.95;;;;;;;4.89;100.00;101067.50;5016694;28;20400;-80
2021/10/26 00:30:14;;;;;;;26.75;18.15;;;;;;;5.03;100.00;101067.94;5041522;28;20126;-79
2021/10/26 00:32:41;;;;;;;25.75;20.10;;;;;;;4.87;100.00;101069.31;5003266;28;20456;-81
2021/10/26 00:35:09;;;;;;;32.47;21.67;;;;;;;4.75;100.00;101061.81;5016075;28;20043;-79
2021/10/26 00:37:36;;;;;;;30.80;19.65;;;;;;;5.14;100.00;101048.53;5000953;28;20357;-81
2021/10/26 00:40:07;;;;;;;28.95;19.00;;;;;;;5.17;100.00;101053.66;5018075;28;20045;-80
2021/10/26 00:42:35;;;;;;;27.15;17.92;;;;;;;5.08;100.00;101055.63;5036736;28;20381;-81
2021/10/26 00:45:03;;;;;;;28.85;18.33;;;;;;;5.44;100.00;101055.41;5026363;28;20372;-80
2021/10/26 00:47:32;;;;;;;20.80;15.45;;;;;;;5.69;100.00;101045.06;5024726;28;20347;-79
2021/10/26 00:50:00;;;;;;;25.77;15.25;;;;;;;5.92;100.00;101044.34;5012601;28;20372;-80
2021/10/26 00:52:28;;;;;;;18.75;14.32;;;;;;;6.04;100.00;101043.09;5014452;28;20786;-81
2021/10/26 00:54:55;;;;;;;17.50;13.45;;;;;;;6.18;100.00;101034.81;4995741;28;20126;-80
2021/10/26 00:57:25;;;;;;;23.27;13.52;;;;;;;6.30;100.00;101039.59;5030970;28;20080;-81
2021/10/26 00:59:52;;;;;;;17.83;12.75;;;;;;;6.27;100.00;101045.78;5033170;28;20044;-80
2021/10/26 01:02:20;;;;;;;27.65;13.40;;;;;;;6.38;100.00;101045.41;5018905;28;20383;-80
2021/10/26 01:04:48;;;;;;;20.25;13.50;;;;;;;6.22;100.00;101039.88;5046009;28;20472;-82
2021/10/26 01:07:15;;;;;;;20.25;13.57;;;;;;;6.25;100.00;101036.28;5020685;28;20041;-81
2021/10/26 01:09:45;;;;;;;21.02;13.32;;;;;;;6.44;100.00;101033.88;5020113;28;20041;-80
2021/10/26 01:12:13;;;;;;;17.83;12.35;;;;;;;6.56;100.00;101042.16;5037257;28;20053;-80
2021/10/26 01:14:40;;;;;;;20.02;12.23;;;;;;;6.56;100.00;101042.16;5018564;28;20044;-80
2021/10/26 01:17:09;;;;;;;19.42;12.70;;;;;;;6.50;100.00;101045.00;5014545;28;20049;-80
2021/10/26 01:19:48;;;;;;;20.70;12.65;;;;;;;6.47;100.00;101050.31;5029647;28;20041;-79
2021/10/26 01:22:16;;;;;;;18.67;12.45;;;;;;;6.49;100.00;101045.91;5031238;28;20029;-81
2021/10/26 01:24:44;;;;;;;18.25;12.60;;;;;;;6.64;100.00;101054.97;5010489;28;20526;-80
2021/10/26 01:27:11;;;;;;;16.52;11.48;;;;;;;6.73;100.00;101062.47;5033807;28;20061;-80
2021/10/26 01:29:38;;;;;;;20.73;12.07;;;;;;;6.64;100.00;101056.72;5026932;28;20033;-80
2021/10/26 01:32:07;;;;;;;17.50;10.88;;;;;;;6.80;100.00;101053.50;5032545;28;20170;-83
2021/10/26 01:34:36;;;;;;;26.17;12.25;;;;;;;6.73;100.00;101054.63;5016049;28;20053;-80
2021/10/26 01:37:05;;;;;;;20.02;12.18;;;;;;;6.73;100.00;101059.00;5030332;28;20043;-80
2021/10/26 01:39:33;;;;;;;20.13;11.52;;;;;;;6.75;100.00;101058.03;5006593;28;20403;-85
2021/10/26 01:42:02;;;;;;;18.02;11.43;;;;;;;6.74;100.00;101055.47;5026341;28;20634;-79
2021/10/26 01:44:30;;;;;;;18.55;10.93;;;;;;;6.77;100.00;101058.00;4996890;28;20333;-81
2021/10/26 01:46:58;;;;;;;17.45;12.05;;;;;;;6.70;100.00;101052.13;5000638;28;20041;-80
2021/10/26 01:49:26;;;;;;;20.05;11.50;;;;;;;6.62;100.00;101053.28;5012864;28;20041;-81
2021/10/26 01:51:54;;;;;;;22.35;12.52;;;;;;;6.61;100.00;101055.06;5019938;28;20039;-80
2021/10/26 01:54:21;;;;;;;15.43;11.40;;;;;;;6.69;100.00;101058.25;5018575;28;21796;-83
2021/10/26 01:56:48;;;;;;;17.52;12.05;;;;;;;6.54;100.00;101049.22;5017868;28;20051;-82
2021/10/26 01:59:16;;;;;;;21.80;12.80;;;;;;;6.46;100.00;101056.47;5014305;28;20055;-79
2021/10/26 02:01:43;;;;;;;20.02;11.57;;;;;;;6.31;100.00;101052.63;5001235;28;20120;-80
2021/10/26 02:04:11;;;;;;;17.33;11.48;;;;;;;6.01;100.00;101049.28;5031225;28;20045;-83
2021/10/26 02:06:38;;;;;;;17.08;12.40;;;;;;;5.80;100.00;101047.31;5036888;28;20025;-79
2021/10/26 02:09:06;;;;;;;23.85;14.23;;;;;;;5.61;100.00;101047.06;5032567;28;20295;-82
2021/10/26 02:11:36;;;;;;;17.35;13.02;;;;;;;5.49;100.00;101047.44;5039529;28;20049;-80
2021/10/26 02:14:03;;;;;;;18.70;12.68;;;;;;;5.41;100.00;101039.88;5033530;28;20029;-82
2021/10/26 02:16:31;;;;;;;19.83;13.38;;;;;;;5.29;100.00;101048.91;5016856;28;20415;-81
2021/10/26 02:18:58;;;;;;;19.67;13.93;;;;;;;5.33;100.00;101040.09;5032295;28;20055;-84
2021/10/26 02:21:25;;;;;;;18.55;12.10;;;;;;;5.53;100.00;101041.22;5023433;28;20036;-83
2021/10/26 02:23:52;;;;;;;19.75;13.73;;;;;;;5.33;100.00;101042.72;5001102;28;20390;-82
2021/10/26 02:26:19;;;;;;;20.48;12.95;;;;;;;5.54;100.00;101046.44;5020677;28;20464;-83
2021/10/26 02:28:48;;;;;;;17.88;12.90;;;;;;;5.59;100.00;101048.88;5013831;28;20120;-81
2021/10/26 02:31:15;;;;;;;17.42;12.55;;;;;;;5.52;100.00;101045.59;5002253;28;20036;-82
2021/10/26 02:33:42;;;;;;;18.50;14.15;;;;;;;5.31;100.00;101039.31;4995959;28;20045;-81
2021/10/26 02:36:09;;;;;;;22.88;13.20;;;;;;;5.36;100.00;101044.38;5021531;28;20395;-82
2021/10/26 02:38:37;;;;;;;21.02;13.80;;;;;;;5.24;100.00;101055.19;5023306;28;20467;-80
2021/10/26 02:41:04;;;;;;;20.20;13.57;;;;;;;5.27;100.00;101050.75;5049709;28;20154;-81
2021/10/26 02:43:32;;;;;;;18.73;13.60;;;;;;;5.34;100.00;101049.63;5038067;28;20041;-83
2021/10/26 02:46:00;;;;;;;20.58;14.85;;;;;;;5.19;100.00;101047.50;4997850;28;20195;-81
2021/10/26 02:48:29;;;;;;;21.15;13.32;;;;;;;5.06;100.00;101043.53;5035951;28;20391;-81
2021/10/26 02:50:57;;;;;;;18.67;13.82;;;;;;;5.14;100.00;101032.88;4999899;28;20068;-81
2021/10/26 02:53:24;;;;;;;25.10;15.65;;;;;;;4.94;100.00;101047.34;5012864;28;20244;-81
2021/10/26 02:55:51;;;;;;;21.33;14.18;;;;;;;4.96;100.00;101036.88;5002907;28;20174;-81
2021/10/26 02:58:19;;;;;;;19.98;13.50;;;;;;;5.07;100.00;101027.81;5013702;28;20033;-83
2021/10/26 03:00:47;;;;;;;24.98;15.23;;;;;;;4.89;100.00;101041.41;5023085;28;20036;-84
2021/10/26 03:03:14;;;;;;;24.20;14.23;;;;;;;4.75;100.00;101044.41;5003918;28;20304;-83
2021/10/26 03:05:41;;;;;;;18.10;14.32;;;;;;;4.64;100.00;101045.59;5019659;28;20080;-79
2021/10/26 03:08:09;;;;;;;26.10;16.08;;;;;;;4.91;100.00;101044.84;5003204;28;20049;-83
2021/10/26 03:10:36;;;;;;;20.58;13.57;;;;;;;5.03;100.00;101033.19;5012204;28;20137;-81
2021/10/26 03:13:04;;;;;;;21.63;15.52;;;;;;;5.03;100.00;101034.03;5031628;28;20061;-83
2021/10/26 03:15:31;;;;;;;20.17;15.82;;;;;;;4.84;100.00;101045.91;5029424;28;20049;-81
2021/10/26 03:17:58;;;;;;;23.42;15.07;;;;;;;4.71;100.00;101042.78;5021175;28;20051;-81
2021/10/26 03:20:27;;;;;;;22.90;15.40;;;;;;;4.81;100.00;101040.78;5019199;28;20033;-83
2021/10/26 03:22:54;;;;;;;25.55;15.65;;;;;;;5.01;100.00;101043.69;5018994;28;20055;-80
2021/10/26 03:25:22;;;;;;;22.90;15.45;;;;;;;5.19;100.00;101030.97;5011007;28;20041;-81
2021/10/26 03:27:49;;;;;;;28.70;17.10;;;;;;;5.37;100.00;101030.41;5034850;28;20060;-82
2021/10/26 03:30:17;;;;;;;20.27;15.25;;;;;;;5.24;100.00;101039.53;5019422;28;20036;-79
2021/10/26 03:32:44;;;;;;;21.40;14.65;;;;;;;5.29;100.00;101032.41;5004547;28;20036;-81
2021/10/26 03:35:11;;;;;;;19.95;14.13;;;;;;;5.26;100.00;101030.72;5016440;28;20049;-82
2021/10/26 03:37:40;;;;;;;30.20;15.95;;;;;;;5.31;100.00;101031.47;5037941;28;20037;-81
2021/10/26 03:40:11;;;;;;;23.08;15.43;;;;;;;5.48;100.00;101028.31;5008962;28;20057;-81
2021/10/26 03:42:39;;;;;;;20.00;14.07;;;;;;;5.70;100.00;101027.63;4999952;28;20391;-81
2021/10/26 03:45:06;;;;;;;19.08;13.45;;;;;;;5.91;100.00;101039.16;5024659;28;20071;-83
2021/10/26 03:47:41;;;;;;;20.65;11.57;;;;;;;6.08;100.00;101039.50;5028592;28;20053;-83
2021/10/26 03:50:11;;;;;;;18.73;12.60;;;;;;;5.82;100.00;101037.69;5014387;28;20527;-80
2021/10/26 03:52:38;;;;;;;18.75;12.95;;;;;;;6.12;100.00;101035.84;5039568;28;20055;-82
2021/10/26 03:55:07;;;;;;;18.63;11.40;;;;;;;6.37;100.00;101045.47;5026408;28;20041;-83
2021/10/26 03:57:34;;;;;;;16.35;11.50;;;;;;;6.31;100.00;101046.53;5029169;28;20392;-82
2021/10/26 04:00:04;;;;;;;16.27;11.50;;;;;;;6.25;100.00;101038.91;5009700;28;20067;-80
2021/10/26 04:02:33;;;;;;;17.83;11.10;;;;;;;6.11;100.00;101034.13;5015358;28;20057;-81
2021/10/26 04:05:12;;;;;;;16.83;11.90;;;;;;;6.09;100.00;101038.56;4994461;28;20173;-80
2021/10/26 04:07:54;;;;;;;19.75;11.48;;;;;;;6.18;100.00;101035.66;5016966;28;20555;-82
2021/10/26 04:10:33;;;;;;;20.40;11.15;;;;;;;6.08;100.00;101039.50;5011909;28;20045;-80
2021/10/26 04:13:02;;;;;;;19.42;12.45;;;;;;;6.15;100.00;101035.75;5032603;28;20105;-83
2021/10/26 04:15:30;;;;;;;21.20;12.82;;;;;;;6.24;100.00;101042.41;5027673;28;20349;-81
2021/10/26 04:17:57;;;;;;;16.52;11.73;;;;;;;6.53;100.00;101042.28;5012809;28;20309;-82
2021/10/26 04:20:25;;;;;;;23.65;11.73;;;;;;;6.59;100.00;101047.28;5010254;28;20032;-83
2021/10/26 04:22:52;;;;;;;25.15;16.92;;;;;;;6.67;100.00;101048.78;5001908;28;20384;-83
2021/10/26 04:25:19;;;;;;;21.30;14.43;;;;;;;6.63;100.00;101045.41;4998047;28;20052;-84
2021/10/26 04:27:46;;;;;;;18.95;12.73;;;;;;;6.77;100.00;101052.75;5019788;28;20459;-82
2021/10/26 04:30:13;;;;;;;17.58;12.55;;;;;;;6.94;100.00;101060.84;5011633;28;20045;-81
2021/10/26 04:32:41;;;;;;;19.17;11.27;;;;;;;6.96;100.00;101056.41;5013849;28;20055;-80
2021/10/26 04:35:08;;;;;;;18.15;11.77;;;;;;;6.96;100.00;101045.09;5013692;28;20048;-81
2021/10/26 04:37:36;;;;;;;18.92;11.68;;;;;;;6.94;100.00;101049.53;5014433;28;20055;-81
2021/10/26 04:40:03;;;;;;;15.68;11.52;;;;;;;6.95;100.00;101056.47;4998697;28;20139;-79
2021/10/26 04:42:32;;;;;;;17.13;11.35;;;;;;;7.02;100.00;101057.94;5031633;28;20049;-84
2021/10/26 04:44:59;;;;;;;18.27;11.02;;;;;;;6.93;100.00;101050.41;5024521;28;20064;-83
2021/10/26 04:47:27;;;;;;;21.02;11.93;;;;;;;6.92;100.00;101052.19;5015900;28;20057;-80
2021/10/26 04:49:54;;;;;;;19.20;10.38;;;;;;;7.12;100.00;101042.75;4995615;28;20045;-80
2021/10/26 04:52:22;;;;;;;14.70;10.38;;;;;;;7.13;100.00;101041.84;5023684;28;20507;-84
2021/10/26 04:54:49;;;;;;;19.05;11.40;;;;;;;7.12;100.00;101046.22;5034916;28;20060;-79
2021/10/26 04:57:16;;;;;;;14.98;10.73;;;;;;;7.05;100.00;101044.72;5034533;28;20072;-81
2021/10/26 04:59:44;;;;;;;14.73;10.25;;;;;;;7.04;100.00;101051.75;5018582;28;20063;-78
2021/10/26 05:02:12;;;;;;;18.88;11.10;;;;;;;7.17;100.00;101049.53;5043778;28;20045;-79
2021/10/26 05:04:40;;;;;;;19.83;11.02;;;;;;;7.21;100.00;101058.13;5018739;28;20056;-80
2021/10/26 05:07:10;;;;;;;16.15;10.98;;;;;;;7.06;100.00;101052.53;5018593;28;20049;-79
2021/10/26 05:09:38;;;;;;;13.68;9.38;;;;;;;7.31;100.00;101067.31;4999564;28;20140;-80
2021/10/26 05:12:06;;;;;;;18.98;11.18;;;;;;;7.27;100.00;101063.13;5016694;28;20061;-78
2021/10/26 05:14:34;;;;;;;15.20;10.32;;;;;;;7.22;100.00;101070.28;5041183;28;20064;-81
2021/10/26 05:17:04;;;;;;;21.67;11.35;;;;;;;7.25;100.00;101065.81;5028458;28;20561;-77
2021/10/26 05:19:33;;;;;;;16.50;10.82;;;;;;;7.21;100.00;101052.88;5028158;28;20720;-79
2021/10/26 05:22:01;;;;;;;19.42;10.48;;;;;;;7.29;100.00;101046.41;5033169;28;20076;-78
2021/10/26 05:24:34;;;;;;;18.75;11.13;;;;;;;7.27;100.00;101047.41;4992702;28;20099;-80
2021/10/26 05:27:01;;;;;;;16.17;10.07;;;;;;;7.33;100.00;101055.84;5049341;28;20131;-80
2021/10/26 05:29:28;;;;;;;17.98;10.13;;;;;;;7.42;100.00;101067.75;5026417;28;20068;-79
2021/10/26 05:31:56;;;;;;;16.80;10.55;;;;;;;7.40;100.00;101066.97;5004039;28;20041;-79
2021/10/26 05:34:24;;;;;;;14.88;10.32;;;;;;;7.33;100.00;101065.47;5016074;28;20065;-79
2021/10/26 05:36:54;;;;;;;15.23;11.05;;;;;;;7.36;100.00;101065.38;5020478;28;20056;-84
2021/10/26 05:39:22;;;;;;;19.60;11.32;;;;;;;7.31;100.00;101059.47;5030058;28;20766;-80
2021/10/26 05:41:49;;;;;;;14.70;10.18;;;;;;;7.36;100.00;101066.22;5036790;28;20120;-83
2021/10/26 05:44:17;;;;;;;16.80;10.27;;;;;;;7.43;100.00;101071.22;5034422;28;20426;-80
2021/10/26 05:46:48;;;;;;;18.45;11.02;;;;;;;7.48;100.00;101069.31;5041887;28;20051;-78
2021/10/26 05:49:15;;;;;;;15.98;11.23;;;;;;;7.48;100.00;101066.69;5026202;28;20041;-82
2021/10/26 05:51:43;;;;;;;14.45;10.10;;;;;;;7.38;100.00;101068.78;5016554;28;20041;-81
2021/10/26 05:54:10;;;;;;;17.80;10.70;;;;;;;7.50;100.00;101076.16;5022311;28;20037;-83
2021/10/26 05:56:37;;;;;;;16.73;10.27;;;;;;;7.52;100.00;101070.84;5022680;28;20527;-77
2021/10/26 05:59:04;;;;;;;22.75;10.73;;;;;;;7.54;100.00;101072.50;5000041;28;20402;-83
2021/10/26 06:01:31;;;;;;;15.15;10.13;;;;;;;7.56;100.00;101080.31;5021946;28;20061;-80
2021/10/26 06:04:01;;;;;;;19.38;10.02;;;;;;;7.57;100.00;101084.66;5014861;28;20049;-79
2021/10/26 06:06:29;;;;;;;18.02;10.48;;;;;;;7.65;100.00;101077.31;5035126;28;20128;-78
2021/10/26 06:08:56;;;;;;;17.20;10.38;;;;;;;7.71;100.00;101077.09;5032828;28;20052;-82
2021/10/26 06:11:29;;;;;;;15.93;11.07;;;;;;;7.72;100.00;101077.94;5014287;28;20080;-79
2021/10/26 06:14:04;;;;;;;18.35;10.20;;;;;;;7.61;100.00;101092.34;4998475;28;20037;-79
2021/10/26 06:16:33;;;;;;;14.38;10.20;;;;;;;7.73;100.00;101079.66;5015932;28;20623;-79
2021/10/26 06:19:01;;;;;;;18.70;11.18;;;;;;;7.75;100.00;101086.56;5005784;28;20136;-84
2021/10/26 06:21:28;;;;;;;15.27;9.95;;;;;;;7.85;100.00;101094.91;5003581;28;20040;-79
2021/10/26 06:23:56;;;;;;;17.60;10.77;;;;;;;7.69;100.00;101093.78;5029191;28;20167;-79
2021/10/26 06:26:23;;;;;;;18.40;10.75;;;;;;;7.80;100.00;101096.84;5028038;28;20040;-84
2021/10/26 06:28:50;;;;;;;14.25;10.10;;;;;;;7.88;100.00;101094.78;4998066;28;20091;-78
2021/10/26 06:31:18;;;;;;;23.45;11.45;;;;;;;7.90;100.00;101094.72;5019616;28;20484;-82
2021/10/26 06:33:45;;;;;;;15.48;10.00;;;;;;;8.02;100.00;101102.94;5030410;28;20137;-81
2021/10/26 06:36:13;;;;;;;20.52;10.65;;;;;;;8.08;100.00;101102.69;5011936;28;20065;-78
2021/10/26 06:38:40;;;;;;;19.83;11.05;;;;;;;8.20;100.00;101105.72;5001404;28;20053;-80
2021/10/26 06:41:07;;;;;;;15.48;10.18;;;;;;;8.15;100.00;101107.66;5033514;28;20073;-79
2021/10/26 06:43:35;;;;;;;17.13;10.35;;;;;;;8.10;100.00;101102.59;5012638;28;20049;-80
2021/10/26 06:46:04;;;;;;;20.23;11.23;;;;;;;8.10;100.00;101113.09;5037339;28;20361;-78
2021/10/26 06:48:31;;;;;;;20.38;12.02;;;;;;;8.21;100.00;101116.13;5015425;28;20045;-79
2021/10/26 06:50:58;;;;;;;20.15;10.95;;;;;;;8.27;100.00;101122.91;5035188;28;20112;-78
2021/10/26 06:53:26;;;;;;;18.50;11.35;;;;;;;8.27;100.00;101125.53;5035630;28;20173;-80
2021/10/26 06:55:54;;;;;;;15.63;10.55;;;;;;;8.37;100.00;101124.25;5031544;28;20047;-77
2021/10/26 06:58:21;;;;;;;19.20;11.43;;;;;;;8.34;100.00;101130.47;5014645;28;20053;-77
2021/10/26 07:00:51;;;;;;;24.55;12.35;;;;;;;8.49;100.00;101138.63;5016799;28;20045;-84
2021/10/26 07:03:21;;;;;;;21.52;11.35;;;;;;;8.55;100.00;101138.38;5046248;28;20064;-81
2021/10/26 07:05:48;;;;;;;26.67;11.75;;;;;;;8.49;100.00;101141.25;5005017;28;20064;-81
2021/10/26 07:08:15;;;;;;;19.27;11.93;;;;;;;8.46;100.00;101146.63;5034997;28;20049;-80
2021/10/26 07:10:42;;;;;;;16.83;10.95;;;;;;;8.65;100.00;101151.97;5015906;28;20049;-81
2021/10/26 07:13:09;;;;;;;20.10;11.57;;;;;;;8.63;100.00;101144.16;5016582;28;20045;-80
2021/10/26 07:15:37;;;;;;;17.08;10.98;;;;;;;8.88;99.92;101151.84;5009752;28;20042;-80
2021/10/26 07:18:04;;;;;;;19.25;11.27;;;;;;;8.97;99.17;101148.81;5016493;28;20106;-77
2021/10/26 07:20:32;;;;;;;21.30;11.23;;;;;;;9.07;98.49;101151.88;5033343;28;20515;-78
2021/10/26 07:22:59;;;;;;;17.30;11.20;;;;;;;9.21;98.72;101146.84;5018092;28;20143;-79
2021/10/26 07:25:26;;;;;;;23.95;11.38;;;;;;;9.37;97.38;101150.50;5011202;28;20051;-83
2021/10/26 07:27:58;;;;;;;16.50;10.25;;;;;;;9.45;97.74;101137.00;5016483;28;20049;-78
2021/10/26 07:30:29;;;;;;;19.20;11.23;;;;;;;9.45;97.38;101149.28;5015651;28;20041;-80
2021/10/26 07:32:56;;;;;;;15.95;10.90;;;;;;;9.50;97.51;101142.91;5026180;28;20053;-79
2021/10/26 07:35:29;;;;;;;24.55;10.77;;;;;;;9.75;100.00;101145.25;5015473;28;20150;-84
2021/10/26 07:37:56;;;;;;;19.77;10.70;;;;;;;9.71;98.56;101143.69;5021903;28;20041;-79
2021/10/26 07:40:24;;;;;;;19.30;12.35;;;;;;;9.85;97.00;101143.03;5032683;28;20049;-79
2021/10/26 07:42:51;;;;;;;23.23;12.15;;;;;;;10.05;95.56;101142.09;5005664;28;20049;-82
2021/10/26 07:45:18;;;;;;;19.17;10.70;;;;;;;10.16;94.92;101145.03;5026320;28;20045;-80
2021/10/26 07:47:45;;;;;;;25.83;12.30;;;;;;;10.25;94.55;101151.66;5022067;28;20036;-80
2021/10/26 07:50:13;;;;;;;22.88;11.07;;;;;;;10.36;93.68;101152.00;4996364;28;20107;-78
2021/10/26 07:52:40;;;;;;;25.95;11.90;;;;;;;10.44;93.66;101148.97;5020384;28;20144;-79
2021/10/26 07:55:08;;;;;;;18.23;11.07;;;;;;;10.52;92.72;101149.44;4994504;28;20052;-78
2021/10/26 07:57:36;;;;;;;21.00;10.68;;;;;;;10.63;92.67;101157.66;5051262;28;20140;-80
2021/10/26 08:00:05;;;;;;;17.20;11.90;;;;;;;10.61;93.77;101154.22;5030342;28;20053;-81
2021/10/26 08:02:35;;;;;;;18.75;10.82;;;;;;;10.76;93.11;101156.09;5018246;28;20045;-78
2021/10/26 08:05:02;;;;;;;17.58;12.18;;;;;;;10.67;93.83;101160.97;5000648;28;20496;-81
2021/10/26 08:07:30;;;;;;;17.88;10.73;;;;;;;10.79;93.83;101160.34;5016911;28;20061;-80
2021/10/26 08:09:57;;;;;;;18.30;11.27;;;;;;;10.95;92.88;101156.00;5027868;28;20475;-82
2021/10/26 08:12:26;;;;;;;18.05;10.95;;;;;;;11.13;92.07;101157.66;5019116;28;20065;-80
2021/10/26 08:14:55;;;;;;;21.70;11.43;;;;;;;11.20;91.35;101157.34;4998783;28;20063;-79
2021/10/26 08:17:24;;;;;;;22.63;11.90;;;;;;;11.24;91.25;101156.25;5001918;28;20041;-78
2021/10/26 08:19:51;;;;;;;16.58;11.55;;;;;;;11.33;91.21;101164.50;5018531;28;20048;-79
2021/10/26 08:22:20;;;;;;;18.35;11.52;;;;;;;11.37;91.05;101162.56;5019672;28;20060;-81
2021/10/26 08:24:51;;;;;;;19.40;12.65;;;;;;;11.66;90.49;101158.34;5034459;28;20043;-78
2021/10/26 08:27:20;;;;;;;17.92;12.02;;;;;;;11.66;89.57;101161.84;5032255;28;20053;-80
2021/10/26 08:29:58;;;;;;;21.48;12.88;;;;;;;11.89;89.07;101151.84;5032851;28;20036;-78
2021/10/26 08:32:41;;;;;;;24.27;13.30;;;;;;;12.12;87.25;101147.91;5029728;28;20044;-79
2021/10/26 08:35:27;;;;;;;19.30;12.25;;;;;;;12.40;86.17;101148.00;5015277;28;20492;-80
2021/10/26 08:38:02;;;;;;;17.80;11.20;;;;;;;12.53;84.76;101153.44;5042471;28;20057;-79
2021/10/26 08:40:32;;;;;;;17.05;11.55;;;;;;;12.35;86.15;101143.94;5036596;28;20047;-81
2021/10/26 08:43:03;;;;;;;21.27;12.88;;;;;;;12.19;86.68;101149.25;5025255;28;20053;-78
2021/10/26 08:45:31;;;;;;;20.40;14.65;;;;;;;12.18;87.09;101149.34;5051904;28;20067;-80
2021/10/26 08:48:01;;;;;;;22.35;12.73;;;;;;;12.17;87.46;101148.50;5063232;28;20053;-82
2021/10/26 08:50:36;;;;;;;17.98;12.75;;;;;;;12.13;87.82;101168.91;5044921;28;20037;-80
2021/10/26 08:53:05;;;;;;;20.48;12.50;;;;;;;12.10;88.57;101161.16;5046810;28;20055;-81
2021/10/26 08:55:37;;;;;;;19.63;13.38;;;;;;;12.24;87.83;101156.91;5023583;28;20052;-80
2021/10/26 08:58:08;;;;;;;20.67;13.07;;;;;;;12.05;88.56;101165.84;5011470;28;20068;-83
2021/10/26 09:00:37;;;;;;;23.02;14.88;;;;;;;11.85;89.65;101158.22;5008248;28;20045;-79
2021/10/26 09:03:25;;;;;;;21.10;12.73;;;;;;;11.82;89.96;101153.97;5025223;28;20068;-81
2021/10/26 09:05:52;;;;;;;18.02;12.38;;;;;;;11.82;90.66;101158.34;5027558;28;20044;-79
2021/10/26 09:08:22;;;;;;;30.50;14.75;;;;;;;11.75;91.07;101163.13;5039480;28;20109;-82
2021/10/26 09:10:50;;;;;;;22.20;13.88;;;;;;;11.72;91.85;101159.81;5021903;28;20137;-80
2021/10/26 09:16:43;;;;;;;20.92;14.23;;;;;;;11.71;92.88;101166.00;5016649;28;20126;-79
2021/10/26 09:19:21;;;;;;;21.77;13.15;;;;;;;11.96;91.03;101169.00;5026730;28;20059;-82
2021/10/26 09:21:59;;;;;;;22.95;15.38;;;;;;;11.91;92.31;101168.44;5012185;28;20483;-82
2021/10/26 09:24:27;;;;;;;20.25;14.57;;;;;;;12.05;91.39;101173.78;5049406;28;20058;-79
2021/10/26 09:27:02;;;;;;;19.40;14.13;;;;;;;12.09;91.59;101175.31;5019473;28;20049;-80
2021/10/26 09:29:39;;;;;;;24.10;13.93;;;;;;;12.02;91.64;101179.25;5026419;28;20052;-77
2021/10/26 09:32:16;;;;;;;22.27;15.10;;;;;;;12.11;91.41;101176.09;5032781;28;20488;-77
2021/10/26 09:35:02;;;;;;;19.38;14.95;;;;;;;12.31;90.50;101182.88;5011077;28;20057;-79
2021/10/26 09:37:35;;;;;;;26.95;14.30;;;;;;;12.45;90.18;101175.94;5036966;28;20107;-79
2021/10/26 09:40:05;;;;;;;20.98;14.15;;;;;;;12.52;89.34;101180.78;5013093;28;20095;-82
2021/10/26 09:42:39;;;;;;;26.30;14.07;;;;;;;12.47;90.24;101174.91;5001335;28;20056;-77
2021/10/26 09:45:10;;;;;;;20.45;13.48;;;;;;;12.74;88.89;101185.63;5028144;28;20888;-81
2021/10/26 09:47:38;;;;;;;23.92;13.45;;;;;;;12.74;89.16;101190.06;4996059;28;20132;-78
2021/10/26 09:50:08;;;;;;;23.65;14.10;;;;;;;12.73;88.46;101191.88;5017857;28;20049;-81
2021/10/26 09:52:42;;;;;;;23.88;14.30;;;;;;;12.91;88.48;101189.94;5005334;28;20053;-80
2021/10/26 09:55:18;;;;;;;20.60;13.43;;;;;;;12.99;87.54;101189.47;5009544;28;20060;-80
2021/10/26 09:57:54;;;;;;;20.33;13.23;;;;;;;13.18;86.96;101193.53;5019260;28;20055;-78
2021/10/26 10:00:32;;;;;;;17.83;12.20;;;;;;;13.65;84.42;101191.63;5012956;28;20056;-80
2021/10/26 10:03:13;;;;;;;19.27;12.27;;;;;;;13.92;81.63;101194.31;5019414;28;20046;-80
2021/10/26 10:05:51;;;;;;;38.40;13.88;;;;;;;14.39;80.08;101185.06;5000691;28;20044;-78
2021/10/26 10:08:20;;;;;;;27.25;12.93;;;;;;;14.05;80.92;101189.94;5017850;28;20049;-80
2021/10/26 10:10:49;;;;;;;17.27;11.70;;;;;;;14.24;80.16;101192.22;5046325;28;20096;-79
2021/10/26 10:13:17;;;;;;;19.17;11.70;;;;;;;14.44;79.16;101182.97;5015488;28;20504;-79
2021/10/26 10:15:46;;;;;;;19.30;11.18;;;;;;;14.54;77.93;101184.06;4999345;28;20033;-79
2021/10/26 10:18:16;;;;;;;17.70;10.48;;;;;;;14.59;78.32;101182.00;5012978;28;20058;-79
2021/10/26 10:20:54;;;;;;;28.23;11.27;;;;;;;14.77;77.60;101174.59;5038074;28;20045;-80
2021/10/26 10:23:23;;;;;;;17.55;10.40;;;;;;;14.97;76.34;101173.25;5031344;28;20060;-82
2021/10/26 10:25:53;;;;;;;17.73;10.05;;;;;;;15.14;74.91;101172.94;5021597;28;20057;-81
2021/10/26 10:28:24;;;;;;;21.63;10.00;;;;;;;15.05;75.46;101172.72;5023200;28;20612;-81
2021/10/26 10:31:06;;;;;;;18.60;9.55;;;;;;;14.99;75.86;101168.66;5021339;28;20091;-80
2021/10/26 10:33:34;;;;;;;14.85;9.45;;;;;;;14.97;75.83;101175.03;5020719;28;20107;-80
2021/10/26 10:36:04;;;;;;;16.98;10.05;;;;;;;14.75;77.05;101176.50;5005150;28;20064;-80
2021/10/26 10:38:33;;;;;;;14.02;9.02;;;;;;;15.07;75.18;101176.09;5038698;28;20799;-80
2021/10/26 10:41:25;;;;;;;12.88;9.25;;;;;;;14.76;76.10;101172.88;5039587;28;20049;-78
2021/10/26 10:43:55;;;;;;;18.20;8.50;;;;;;;14.26;78.72;101166.47;5001444;28;20045;-78
2021/10/26 10:46:43;;;;;;;15.30;8.63;;;;;;;13.90;80.72;101177.66;5034686;28;20048;-82
2021/10/26 10:49:20;;;;;;;13.65;9.00;;;;;;;13.91;79.88;101174.94;5032569;28;20499;-84
2021/10/26 10:52:08;;;;;;;17.38;8.23;;;;;;;13.69;81.17;101169.31;5023165;28;20760;-81
2021/10/26 10:57:35;;;;;;;15.30;8.13;;;;;;;13.75;81.32;101179.50;5056984;28;20480;-84
2021/10/26 11:00:34;;;;;;;15.50;7.65;;;;;;;13.82;81.25;101180.78;5016443;28;20052;-86
2021/10/26 11:03:11;;;;;;;12.20;7.93;;;;;;;14.16;79.84;101176.84;5039616;28;20430;-85
2021/10/26 11:05:43;;;;;;;14.77;9.18;;;;;;;14.47;78.85;101171.31;5036506;28;20064;-81
2021/10/26 11:08:42;;;;;;;19.08;8.52;;;;;;;14.38;78.71;101168.34;5021758;28;20076;-83
2021/10/26 11:11:16;;;;;;;16.40;9.05;;;;;;;14.11;79.26;101173.63;5014728;28;20072;-81
2021/10/26 11:13:47;;;;;;;14.63;9.43;;;;;;;14.26;79.25;101169.13;5021196;28;20125;-78
2021/10/26 11:16:33;;;;;;;16.20;10.43;;;;;;;13.84;80.95;101178.91;5015736;28;20044;-76
2021/10/26 11:19:05;;;;;;;;;;;;;;;14.07;80.08;101177.44;5015147;28;20057;-83
2021/10/26 11:21:37;;;;;;;15.68;9.07;;;;;;;14.02;80.44;101176.03;5032374;28;19921;-82
2021/10/26 11:24:07;;;;;;;17.63;10.50;;;;;;;13.57;82.74;101185.94;5020576;28;20119;-80
2021/10/26 11:26:42;;;;;;;19.17;10.70;;;;;;;13.97;81.17;101178.13;5037114;28;20127;-80